Time;durP1;ratioP1;P1;durP2;ratioP2;P2;SDS_P1;SDS_P2;PMS_P1;PMS_P2;Temp;Humidity;BMP_temperature;BMP_pressure;BME280_temperature;BME280_humidity;BME280_pressure;Samples;Min_cycle;Max_cycle;Signal;HPM_P1;HPM_P2
2022/04/15 00:00:43;;;;;;;3.28;2.88;;;10.60;58.70;;;;;;5069125;28;20097;-59
2022/04/15 00:03:11;;;;;;;4.38;2.95;;;10.60;58.60;;;;;;5059397;28;20071;-57
2022/04/15 00:05:37;;;;;;;2.95;2.65;;;10.60;58.60;;;;;;5068449;28;20066;-59
2022/04/15 00:08:11;;;;;;;3.42;2.58;;;10.60;58.60;;;;;;5067456;28;20032;-57
2022/04/15 00:10:45;;;;;;;3.65;3.10;;;10.60;58.60;;;;;;5050701;28;20029;-57
2022/04/15 00:13:12;;;;;;;2.97;2.63;;;10.50;58.60;;;;;;5068310;28;20028;-57
2022/04/15 00:15:39;;;;;;;4.20;3.00;;;10.50;58.60;;;;;;5072193;28;20557;-57
2022/04/15 00:18:05;;;;;;;4.68;3.42;;;10.60;58.80;;;;;;5071370;28;20081;-56
2022/04/15 00:20:32;;;;;;;5.15;3.22;;;10.60;58.90;;;;;;5064927;28;20409;-57
2022/04/15 00:22:58;;;;;;;5.57;3.30;;;10.50;58.90;;;;;;5073574;28;20036;-57
2022/04/15 00:25:25;;;;;;;5.75;3.45;;;10.50;58.90;;;;;;5072358;28;20016;-57
2022/04/15 00:27:51;;;;;;;6.70;3.80;;;10.50;58.80;;;;;;5067814;28;20028;-57
2022/04/15 00:30:18;;;;;;;5.47;3.83;;;10.50;58.90;;;;;;5065678;28;20025;-57
2022/04/15 00:32:43;;;;;;;5.28;3.47;;;10.50;58.80;;;;;;5065683;28;20063;-57
2022/04/15 00:35:10;;;;;;;4.97;3.67;;;10.40;58.90;;;;;;5074719;28;20714;-57
2022/04/15 00:37:36;;;;;;;5.22;3.50;;;10.40;58.80;;;;;;5075230;28;20433;-57
2022/04/15 00:40:03;;;;;;;6.38;4.10;;;10.40;59.00;;;;;;5075013;28;20036;-57
2022/04/15 00:42:30;;;;;;;5.03;3.40;;;10.40;59.10;;;;;;5075800;28;20016;-56
2022/04/15 00:45:00;;;;;;;4.25;3.53;;;10.40;59.10;;;;;;5074589;28;20024;-57
2022/04/15 00:47:48;;;;;;;4.90;3.63;;;10.40;59.20;;;;;;5050073;28;20024;-57
2022/04/15 00:50:15;;;;;;;4.45;3.60;;;10.30;59.20;;;;;;5064684;28;20020;-57
2022/04/15 00:52:45;;;;;;;5.65;4.00;;;10.30;59.40;;;;;;5075575;28;20024;-57
2022/04/15 00:55:12;;;;;;;6.15;3.72;;;10.20;59.60;;;;;;5074525;28;20032;-57
2022/04/15 00:57:40;;;;;;;5.88;4.10;;;10.20;59.90;;;;;;5068974;28;20025;-56
2022/04/15 01:00:08;;;;;;;5.38;4.30;;;10.10;60.00;;;;;;5074173;28;20081;-57
2022/04/15 01:02:34;;;;;;;6.55;4.30;;;10.10;60.10;;;;;;5068027;28;20053;-57
2022/04/15 01:05:03;;;;;;;7.25;4.28;;;10.00;60.20;;;;;;5055734;28;20082;-57
2022/04/15 01:07:33;;;;;;;6.30;4.53;;;10.00;60.30;;;;;;5075038;28;20476;-57
2022/04/15 01:10:01;;;;;;;6.90;4.53;;;9.90;60.40;;;;;;5073654;28;20029;-57
2022/04/15 01:12:29;;;;;;;6.40;4.25;;;9.80;60.40;;;;;;5075172;28;20023;-57
2022/04/15 01:15:00;;;;;;;7.88;4.55;;;9.80;60.60;;;;;;5060416;28;20036;-57
2022/04/15 01:17:28;;;;;;;9.17;4.93;;;9.80;60.70;;;;;;5075161;28;20392;-57
2022/04/15 01:19:54;;;;;;;8.50;4.72;;;9.80;60.60;;;;;;5070403;28;20323;-57
2022/04/15 01:22:23;;;;;;;6.35;4.50;;;9.80;60.80;;;;;;5075066;28;20472;-57
2022/04/15 01:24:49;;;;;;;7.57;4.90;;;9.80;60.80;;;;;;5073312;28;20028;-57
2022/04/15 01:27:32;;;;;;;7.38;4.75;;;9.70;60.90;;;;;;5074903;28;20054;-57
2022/04/15 01:29:58;;;;;;;7.05;4.30;;;9.80;61.00;;;;;;5070056;28;20021;-57
2022/04/15 01:32:23;;;;;;;8.32;5.32;;;9.70;61.10;;;;;;5073154;28;20047;-57
2022/04/15 01:34:49;;;;;;;8.93;4.57;;;9.70;61.60;;;;;;5070479;28;20029;-57
2022/04/15 01:37:17;;;;;;;5.93;4.50;;;9.60;61.80;;;;;;5064936;28;20493;-57
2022/04/15 01:39:43;;;;;;;7.45;5.30;;;9.60;61.80;;;;;;5075395;28;20395;-57
2022/04/15 01:42:16;;;;;;;7.93;5.43;;;9.60;61.70;;;;;;5069833;28;20379;-57
2022/04/15 01:44:42;;;;;;;8.25;5.72;;;9.60;61.90;;;;;;5073522;28;20024;-57
2022/04/15 01:47:09;;;;;;;10.18;6.28;;;9.50;62.20;;;;;;5073612;28;20027;-57
2022/04/15 01:49:34;;;;;;;11.82;7.45;;;9.50;62.60;;;;;;5073193;28;20020;-57
2022/04/15 01:52:00;;;;;;;10.93;6.82;;;9.40;63.00;;;;;;5074482;28;20078;-57
2022/04/15 01:54:29;;;;;;;9.40;6.30;;;9.40;63.50;;;;;;5069252;28;20119;-57
2022/04/15 01:56:56;;;;;;;9.50;6.32;;;9.40;63.80;;;;;;5074695;28;20044;-57
2022/04/15 01:59:22;;;;;;;9.68;6.70;;;9.40;64.00;;;;;;5074330;28;20036;-57
2022/04/15 02:01:49;;;;;;;7.40;5.75;;;9.40;64.10;;;;;;5063591;28;20075;-57
2022/04/15 02:04:15;;;;;;;8.75;6.20;;;9.30;64.10;;;;;;5070128;28;20036;-57
2022/04/15 02:06:41;;;;;;;9.52;6.70;;;9.40;64.30;;;;;;5069444;28;20028;-57
2022/04/15 02:09:07;;;;;;;8.73;5.97;;;9.30;64.40;;;;;;5070048;28;20545;-57
2022/04/15 02:11:34;;;;;;;9.68;6.07;;;9.30;64.60;;;;;;5070314;28;20108;-57
2022/04/15 02:13:59;;;;;;;9.02;6.07;;;9.20;64.70;;;;;;5074161;28;20021;-57
2022/04/15 02:16:25;;;;;;;8.93;6.03;;;9.20;64.80;;;;;;5071726;28;20059;-57
2022/04/15 02:18:51;;;;;;;7.85;5.03;;;9.10;64.80;;;;;;5073351;28;20033;-57
2022/04/15 02:21:16;;;;;;;6.72;5.07;;;9.10;64.90;;;;;;5055251;28;20046;-57
2022/04/15 02:23:42;;;;;;;8.57;5.85;;;9.00;64.90;;;;;;5064772;28;20496;-57
2022/04/15 02:26:08;;;;;;;7.60;5.15;;;9.00;65.10;;;;;;5069106;28;20035;-57
2022/04/15 02:28:33;;;;;;;8.63;5.43;;;9.00;65.20;;;;;;5068761;28;20025;-57
2022/04/15 02:30:59;;;;;;;9.60;5.80;;;8.90;65.20;;;;;;5070377;28;20024;-57
2022/04/15 02:33:24;;;;;;;8.93;5.97;;;8.90;65.30;;;;;;5062945;28;20414;-57
2022/04/15 02:35:50;;;;;;;9.85;6.25;;;8.90;65.30;;;;;;5073318;28;20032;-57
2022/04/15 02:38:16;;;;;;;9.73;5.93;;;8.90;65.30;;;;;;5064364;28;20554;-57
2022/04/15 02:40:43;;;;;;;8.23;5.90;;;8.80;65.60;;;;;;5065052;28;20100;-57
2022/04/15 02:43:10;;;;;;;9.30;5.53;;;8.80;65.60;;;;;;5072674;28;20032;-57
2022/04/15 02:45:36;;;;;;;9.88;5.95;;;8.70;65.60;;;;;;5067391;28;20540;-57
2022/04/15 02:48:02;;;;;;;8.15;6.40;;;8.70;65.80;;;;;;5072118;28;20021;-57
2022/04/15 02:50:28;;;;;;;9.38;5.95;;;8.70;65.80;;;;;;5071581;28;20029;-59
2022/04/15 02:52:54;;;;;;;9.45;6.20;;;8.70;65.90;;;;;;5066168;28;20028;-57
2022/04/15 02:55:20;;;;;;;7.60;5.43;;;8.70;66.00;;;;;;5073679;28;20031;-57
2022/04/15 02:57:46;;;;;;;8.48;6.15;;;8.60;66.00;;;;;;5063712;28;20504;-57
2022/04/15 03:00:14;;;;;;;8.02;5.68;;;8.60;66.20;;;;;;5072584;28;20017;-56
2022/04/15 03:02:39;;;;;;;8.65;5.35;;;8.60;66.30;;;;;;5065523;28;20033;-57
2022/04/15 03:05:06;;;;;;;10.98;7.40;;;8.50;66.50;;;;;;5073180;28;20031;-59
2022/04/15 03:07:32;;;;;;;10.35;6.95;;;8.50;66.50;;;;;;5070628;28;20103;-57
2022/04/15 03:09:58;;;;;;;8.77;6.22;;;8.50;66.60;;;;;;5072216;28;20056;-57
2022/04/15 03:12:24;;;;;;;9.98;6.68;;;8.50;66.60;;;;;;5072745;28;20495;-57
2022/04/15 03:14:51;;;;;;;9.27;6.72;;;8.50;66.70;;;;;;5064922;28;20025;-57
2022/04/15 03:17:16;;;;;;;9.45;6.50;;;8.50;66.90;;;;;;5071794;28;20494;-57
2022/04/15 03:19:42;;;;;;;8.98;6.65;;;8.50;67.00;;;;;;5076558;28;20048;-57
2022/04/15 03:22:08;;;;;;;8.50;6.05;;;8.50;67.00;;;;;;5058894;28;20043;-57
2022/04/15 03:24:33;;;;;;;8.23;6.32;;;8.50;67.00;;;;;;5067849;28;20821;-57
2022/04/15 03:26:59;;;;;;;9.82;6.82;;;8.50;67.00;;;;;;5069179;28;20087;-57
2022/04/15 03:29:25;;;;;;;8.95;5.88;;;8.60;67.10;;;;;;5072308;28;20507;-57
2022/04/15 03:31:50;;;;;;;8.55;6.07;;;8.60;67.00;;;;;;5064513;28;20048;-57
2022/04/15 03:34:16;;;;;;;8.82;6.50;;;8.70;67.00;;;;;;5064010;28;20052;-57
2022/04/15 03:36:42;;;;;;;11.93;7.50;;;8.80;66.90;;;;;;5060566;28;20391;-57
2022/04/15 03:39:07;;;;;;;12.35;7.88;;;8.80;66.70;;;;;;5069326;28;20082;-57
2022/04/15 03:41:34;;;;;;;10.02;7.35;;;8.90;66.60;;;;;;5071826;28;20407;-57
2022/04/15 03:44:01;;;;;;;10.93;6.97;;;9.00;66.60;;;;;;5071499;28;20036;-57
2022/04/15 03:46:27;;;;;;;9.43;6.25;;;9.10;66.90;;;;;;5066757;28;20111;-57
2022/04/15 03:48:52;;;;;;;9.38;6.40;;;9.20;66.70;;;;;;5072644;28;20111;-57
2022/04/15 03:51:18;;;;;;;9.18;6.07;;;9.20;66.50;;;;;;5072033;28;20031;-57
2022/04/15 03:53:44;;;;;;;9.85;6.50;;;9.40;66.50;;;;;;5070540;28;20491;-59
2022/04/15 03:56:09;;;;;;;9.63;7.22;;;9.40;66.50;;;;;;5059690;28;20024;-57
2022/04/15 03:58:35;;;;;;;13.25;7.68;;;9.50;66.30;;;;;;5070679;28;20032;-57
2022/04/15 04:01:01;;;;;;;8.95;7.28;;;9.60;66.30;;;;;;5062742;28;20025;-57
2022/04/15 04:03:27;;;;;;;11.18;7.20;;;9.80;66.30;;;;;;5065752;28;20111;-58
2022/04/15 04:05:53;;;;;;;12.82;7.63;;;9.90;66.10;;;;;;5064634;28;20570;-58
2022/04/15 04:08:18;;;;;;;12.10;7.97;;;10.00;66.00;;;;;;5069565;28;20036;-58
2022/04/15 04:10:44;;;;;;;11.10;7.18;;;10.10;65.80;;;;;;5069984;28;20032;-58
2022/04/15 04:13:10;;;;;;;10.73;8.00;;;10.20;66.00;;;;;;5065072;28;20016;-58
2022/04/15 04:15:36;;;;;;;12.25;8.57;;;10.40;66.00;;;;;;5069599;28;20043;-58
2022/04/15 04:18:02;;;;;;;14.57;9.45;;;10.50;65.80;;;;;;5072430;28;20399;-58
2022/04/15 04:20:28;;;;;;;19.35;11.30;;;10.70;65.60;;;;;;5072240;28;20031;-58
2022/04/15 04:22:54;;;;;;;17.50;11.07;;;10.80;65.00;;;;;;5060634;28;20063;-58
2022/04/15 04:25:20;;;;;;;20.58;12.30;;;11.00;64.30;;;;;;5069549;28;20028;-58
2022/04/15 04:27:46;;;;;;;16.77;11.15;;;11.20;63.70;;;;;;5070755;28;20511;-58
2022/04/15 04:30:13;;;;;;;16.88;12.25;;;11.40;63.20;;;;;;5070000;28;20144;-58
2022/04/15 04:32:39;;;;;;;18.23;11.85;;;11.60;62.80;;;;;;5066675;28;20032;-59
2022/04/15 04:35:06;;;;;;;17.80;12.43;;;11.90;62.30;;;;;;5071509;28;20028;-58
2022/04/15 04:37:32;;;;;;;20.65;13.07;;;12.10;62.00;;;;;;5064045;28;20125;-58
2022/04/15 04:39:57;;;;;;;18.65;12.07;;;12.50;61.40;;;;;;5072282;28;20034;-58
2022/04/15 04:42:24;;;;;;;17.27;11.60;;;12.80;60.70;;;;;;5075116;28;20476;-58
2022/04/15 04:44:51;;;;;;;18.80;11.30;;;13.10;59.90;;;;;;5066901;28;20064;-58
2022/04/15 04:47:19;;;;;;;16.15;10.98;;;13.40;59.30;;;;;;5065126;28;20025;-58
2022/04/15 04:49:44;;;;;;;18.33;11.07;;;13.50;58.60;;;;;;5065044;28;20027;-58
2022/04/15 04:52:10;;;;;;;16.27;11.05;;;13.70;58.20;;;;;;5068517;28;20033;-58
2022/04/15 04:54:36;;;;;;;15.38;10.27;;;13.80;58.00;;;;;;5066611;28;20051;-58
2022/04/15 04:57:02;;;;;;;17.05;11.25;;;13.90;57.70;;;;;;5068038;28;20056;-58
2022/04/15 04:59:29;;;;;;;19.98;10.43;;;14.10;57.40;;;;;;5070212;28;20021;-58
2022/04/15 05:01:55;;;;;;;15.60;10.30;;;14.30;57.20;;;;;;5065626;28;20055;-58
2022/04/15 05:04:21;;;;;;;15.15;10.48;;;14.60;56.90;;;;;;5065211;28;20028;-57
2022/04/15 05:06:46;;;;;;;16.60;10.35;;;14.90;56.50;;;;;;5065783;28;20341;-57
2022/04/15 05:09:12;;;;;;;19.33;12.48;;;15.20;56.00;;;;;;5062447;28;20025;-57
2022/04/15 05:11:38;;;;;;;15.65;10.50;;;15.60;55.70;;;;;;5067140;28;20480;-58
2022/04/15 05:14:03;;;;;;;14.68;10.20;;;15.90;55.20;;;;;;5069556;28;20025;-58
2022/04/15 05:16:30;;;;;;;16.30;10.13;;;16.30;55.40;;;;;;5071240;28;20154;-58
2022/04/15 05:18:56;;;;;;;16.52;10.45;;;16.60;54.70;;;;;;5068602;28;20036;-57
2022/04/15 05:21:21;;;;;;;13.68;9.80;;;17.00;54.10;;;;;;5069464;28;20036;-58
2022/04/15 05:23:47;;;;;;;16.80;10.60;;;17.50;53.60;;;;;;5068011;28;20210;-57
2022/04/15 05:26:13;;;;;;;14.25;10.68;;;17.80;53.20;;;;;;5070706;28;20510;-57
2022/04/15 05:28:41;;;;;;;15.20;10.55;;;18.10;52.60;;;;;;5068068;28;20020;-58
2022/04/15 05:31:08;;;;;;;14.98;10.57;;;18.30;52.10;;;;;;5071319;28;20032;-57
2022/04/15 05:33:33;;;;;;;15.93;11.18;;;18.50;51.70;;;;;;5071308;28;20042;-58
2022/04/15 05:35:59;;;;;;;15.30;10.23;;;18.60;51.30;;;;;;5071071;28;20439;-57
2022/04/15 05:38:25;;;;;;;13.90;10.43;;;18.60;51.00;;;;;;5062499;28;20543;-58
2022/04/15 05:40:51;;;;;;;14.38;10.70;;;18.60;50.50;;;;;;5067780;28;20384;-58
2022/04/15 05:43:17;;;;;;;14.80;11.35;;;18.60;50.00;;;;;;5062510;28;20031;-58
2022/04/15 05:45:43;;;;;;;15.85;11.27;;;18.50;49.90;;;;;;5070927;28;20051;-58
2022/04/15 05:48:08;;;;;;;15.40;10.98;;;18.30;49.90;;;;;;5060061;28;20120;-58
2022/04/15 05:50:34;;;;;;;16.00;10.85;;;18.10;50.70;;;;;;5062752;28;20081;-58
2022/04/15 05:53:00;;;;;;;16.23;11.15;;;17.80;50.20;;;;;;5063562;28;20036;-58
2022/04/15 05:55:26;;;;;;;16.33;11.25;;;17.50;50.40;;;;;;5063700;28;20013;-58
2022/04/15 05:57:51;;;;;;;16.83;11.60;;;17.30;50.80;;;;;;5063818;28;20032;-58
2022/04/15 06:00:18;;;;;;;18.00;11.88;;;17.00;50.90;;;;;;5064580;28;20423;-58
2022/04/15 06:02:43;;;;;;;16.33;12.00;;;16.80;51.20;;;;;;5066439;28;20476;-58
2022/04/15 06:05:10;;;;;;;16.80;12.32;;;16.60;51.50;;;;;;5063899;28;20117;-58
2022/04/15 06:07:35;;;;;;;17.65;12.27;;;16.40;51.90;;;;;;5059729;28;20056;-58
2022/04/15 06:10:02;;;;;;;18.33;12.50;;;16.30;52.20;;;;;;5058937;28;20561;-58
2022/04/15 06:15:22;;;;;;;17.80;12.27;;;16.10;52.40;;;;;;5058217;28;20166;-58
2022/04/15 06:17:48;;;;;;;20.23;13.50;;;15.90;52.70;;;;;;5057287;28;20033;-58
2022/04/15 06:20:14;;;;;;;18.63;13.70;;;15.80;52.90;;;;;;5052634;28;20039;-59
2022/04/15 06:22:44;;;;;;;22.70;15.23;;;15.80;53.20;;;;;;5058139;28;20028;-58
2022/04/15 06:25:10;;;;;;;20.80;14.65;;;15.70;53.90;;;;;;5056700;28;20040;-58
2022/04/15 06:27:36;;;;;;;19.55;14.25;;;15.60;54.10;;;;;;5057836;28;20039;-58
2022/04/15 06:30:03;;;;;;;20.58;14.95;;;15.50;54.30;;;;;;5050864;28;20028;-58
2022/04/15 06:32:29;;;;;;;18.80;13.98;;;15.50;54.40;;;;;;5056529;28;20043;-58
2022/04/15 06:34:54;;;;;;;19.67;14.65;;;15.40;54.70;;;;;;5053866;28;20036;-58
2022/04/15 06:37:20;;;;;;;16.77;13.50;;;15.40;54.70;;;;;;5054667;28;20056;-58
2022/04/15 06:39:50;;;;;;;17.45;13.48;;;15.40;54.80;;;;;;5051299;28;20108;-59
2022/04/15 06:42:27;;;;;;;13.63;10.80;;;15.30;54.70;;;;;;5050787;28;20046;-58
2022/04/15 06:44:53;;;;;;;16.70;10.80;;;15.30;54.50;;;;;;5053986;28;20037;-58
2022/04/15 06:47:19;;;;;;;14.23;10.15;;;15.30;54.50;;;;;;5060288;28;20031;-58
2022/04/15 06:49:47;;;;;;;19.02;11.32;;;15.30;54.50;;;;;;5060233;28;20021;-58
2022/04/15 06:52:14;;;;;;;14.10;10.05;;;15.20;54.40;;;;;;5057586;28;20028;-58
2022/04/15 06:54:39;;;;;;;17.25;10.18;;;15.30;54.70;;;;;;5056307;28;20028;-58
2022/04/15 06:57:06;;;;;;;15.88;10.68;;;15.30;54.60;;;;;;5062893;28;20033;-57
2022/04/15 06:59:32;;;;;;;14.90;10.13;;;15.20;54.30;;;;;;5053847;28;20052;-59
2022/04/15 07:01:59;;;;;;;14.35;9.73;;;15.20;54.20;;;;;;5057223;28;20051;-58
2022/04/15 07:04:25;;;;;;;13.70;10.00;;;15.20;54.30;;;;;;5057242;28;20025;-58
2022/04/15 07:06:51;;;;;;;14.13;10.13;;;15.20;54.20;;;;;;5057482;28;20086;-57
2022/04/15 07:09:16;;;;;;;14.65;10.27;;;15.20;54.20;;;;;;5049513;28;20029;-58
2022/04/15 07:11:42;;;;;;;11.77;8.68;;;15.10;53.90;;;;;;5054175;28;20037;-57
2022/04/15 07:14:08;;;;;;;13.93;9.65;;;15.10;53.80;;;;;;5060801;28;20149;-58
2022/04/15 07:16:34;;;;;;;12.93;8.75;;;15.10;53.80;;;;;;5055586;28;20064;-58
2022/04/15 07:19:04;;;;;;;13.70;8.73;;;15.10;53.90;;;;;;5054290;28;20136;-58
2022/04/15 07:21:31;;;;;;;14.10;9.70;;;15.10;54.00;;;;;;5055100;28;20040;-58
2022/04/15 07:23:57;;;;;;;14.70;9.60;;;15.00;53.90;;;;;;5053467;28;20703;-58
2022/04/15 07:26:22;;;;;;;14.50;8.93;;;15.00;54.00;;;;;;5053389;28;20669;-57
2022/04/15 07:28:48;;;;;;;12.68;8.00;;;15.00;54.10;;;;;;5051189;28;20149;-58
2022/04/15 07:31:14;;;;;;;11.80;8.60;;;15.00;54.00;;;;;;5050683;28;20028;-57
2022/04/15 07:33:39;;;;;;;14.00;8.55;;;15.00;54.20;;;;;;5049574;28;20032;-59
2022/04/15 07:36:31;;;;;;;11.68;8.18;;;15.00;54.60;;;;;;5049004;28;20113;-58
2022/04/15 07:38:51;;;;;;;14.52;8.55;;;15.00;55.00;;;;;;5049094;28;20041;-59
2022/04/15 07:41:17;;;;;;;14.18;9.10;;;15.00;55.40;;;;;;5052592;28;20040;-58
2022/04/15 07:43:42;;;;;;;10.80;7.95;;;15.00;55.70;;;;;;5054799;28;20560;-59
2022/04/15 07:46:08;;;;;;;7.97;5.80;;;14.90;55.70;;;;;;5052821;28;20035;-60
2022/04/15 07:48:34;;;;;;;5.22;4.57;;;14.90;55.10;;;;;;5054328;28;20078;-59
2022/04/15 07:50:59;;;;;;;5.57;4.10;;;14.90;54.10;;;;;;5047999;28;20024;-58
2022/04/15 07:53:26;;;;;;;4.85;3.65;;;14.90;53.50;;;;;;5053241;28;20060;-57
2022/04/15 07:55:51;;;;;;;4.88;3.88;;;14.90;53.20;;;;;;5053975;28;20056;-58
2022/04/15 07:58:18;;;;;;;7.10;5.15;;;14.90;52.70;;;;;;5051285;28;20115;-59
2022/04/15 08:00:44;;;;;;;5.40;3.63;;;14.90;52.70;;;;;;5050301;28;20036;-59
2022/04/15 08:03:09;;;;;;;5.50;3.60;;;14.80;52.20;;;;;;5051812;28;20037;-58
2022/04/15 08:05:35;;;;;;;5.47;3.63;;;14.80;52.10;;;;;;5056024;28;20688;-59
2022/04/15 08:08:01;;;;;;;5.25;3.30;;;14.80;51.90;;;;;;5057037;28;20080;-58
2022/04/15 08:10:27;;;;;;;5.93;3.30;;;14.80;51.40;;;;;;5050716;28;20055;-59
2022/04/15 08:12:53;;;;;;;6.13;3.40;;;14.80;51.20;;;;;;5053054;28;20073;-58
2022/04/15 08:15:18;;;;;;;5.53;3.45;;;14.80;51.20;;;;;;5054322;28;20107;-60
2022/04/15 08:17:44;;;;;;;5.50;4.10;;;14.80;51.10;;;;;;5054190;28;20027;-59
2022/04/15 08:20:10;;;;;;;6.50;4.10;;;14.70;51.10;;;;;;5051561;28;20562;-59
2022/04/15 08:22:36;;;;;;;6.88;3.85;;;14.70;51.20;;;;;;5056573;28;20502;-59
2022/04/15 08:25:04;;;;;;;5.15;3.65;;;14.70;51.30;;;;;;5048874;28;20483;-59
2022/04/15 08:27:29;;;;;;;3.83;3.03;;;14.70;51.60;;;;;;5055704;28;20036;-59
2022/04/15 08:29:55;;;;;;;4.65;3.00;;;14.70;51.50;;;;;;5048707;28;20392;-60
2022/04/15 08:32:21;;;;;;;3.55;2.70;;;14.60;51.30;;;;;;5053493;28;20491;-58
2022/04/15 08:34:47;;;;;;;3.58;2.60;;;14.60;51.50;;;;;;5052307;28;20183;-60
2022/04/15 08:37:13;;;;;;;4.07;3.45;;;14.60;51.40;;;;;;5052739;28;20124;-58
2022/04/15 08:39:40;;;;;;;6.43;4.50;;;14.60;51.50;;;;;;5050072;28;23060;-57
2022/04/15 08:42:09;;;;;;;6.50;3.95;;;14.60;52.00;;;;;;5052205;28;20036;-58
2022/04/15 08:44:34;;;;;;;4.65;3.60;;;14.60;52.50;;;;;;5047023;28;20491;-59
2022/04/15 08:47:02;;;;;;;5.43;3.95;;;14.60;52.60;;;;;;5038623;28;20021;-59
2022/04/15 08:49:29;;;;;;;4.40;3.83;;;14.60;52.60;;;;;;5052897;28;20024;-59
2022/04/15 08:51:55;;;;;;;5.13;3.45;;;14.50;52.70;;;;;;5052459;28;20081;-59
2022/04/15 08:54:21;;;;;;;4.55;3.65;;;14.50;52.90;;;;;;5048464;28;20476;-59
2022/04/15 08:56:47;;;;;;;4.53;3.60;;;14.40;53.30;;;;;;5052038;28;20515;-59
2022/04/15 08:59:16;;;;;;;4.20;3.53;;;14.40;53.50;;;;;;5050861;28;21223;-59
2022/04/15 09:01:43;;;;;;;5.13;3.30;;;14.40;53.90;;;;;;5044495;28;20056;-60
2022/04/15 09:04:09;;;;;;;5.80;3.90;;;14.30;53.90;;;;;;5051882;28;20037;-60
2022/04/15 09:06:35;;;;;;;7.00;3.83;;;14.30;54.30;;;;;;5055217;28;20024;-60
2022/04/15 09:09:04;;;;;;;5.95;3.65;;;14.20;54.10;;;;;;5052514;28;20483;-60
2022/04/15 09:11:35;;;;;;;6.78;4.10;;;14.30;54.10;;;;;;5057056;28;20400;-57
2022/04/15 09:14:06;;;;;;;8.38;3.85;;;14.30;54.00;;;;;;5055920;28;20043;-59
2022/04/15 09:16:40;;;;;;;6.10;4.05;;;14.30;54.00;;;;;;5055493;28;20143;-57
2022/04/15 09:19:07;;;;;;;5.18;3.40;;;14.30;54.00;;;;;;5050495;28;20111;-58
2022/04/15 09:21:34;;;;;;;5.82;3.42;;;14.30;54.40;;;;;;5054230;28;20040;-59
2022/04/15 09:24:00;;;;;;;6.43;3.70;;;14.30;54.90;;;;;;5056691;28;20510;-58
2022/04/15 09:26:26;;;;;;;6.07;3.85;;;14.30;55.00;;;;;;5052805;28;20024;-58
2022/04/15 09:28:56;;;;;;;6.47;3.95;;;14.30;55.30;;;;;;5052931;28;20050;-58
2022/04/15 09:31:23;;;;;;;7.00;3.97;;;14.30;55.50;;;;;;5052062;28;20033;-57
2022/04/15 09:34:00;;;;;;;7.15;3.83;;;14.30;55.70;;;;;;5051655;28;20037;-57
2022/04/15 09:36:25;;;;;;;6.38;3.75;;;14.30;55.90;;;;;;5049582;28;20047;-58
2022/04/15 09:38:56;;;;;;;5.32;3.70;;;14.30;55.60;;;;;;5049145;28;20029;-59
2022/04/15 09:41:23;;;;;;;5.80;3.55;;;14.30;56.30;;;;;;5052512;28;20075;-57
2022/04/15 09:43:53;;;;;;;4.40;3.80;;;14.20;56.00;;;;;;5058150;28;20710;-56
2022/04/15 09:46:20;;;;;;;5.70;3.40;;;14.20;55.90;;;;;;5057980;28;20038;-58
2022/04/15 09:49:07;;;;;;;7.00;3.45;;;14.10;56.00;;;;;;5054863;28;20672;-57
2022/04/15 09:51:52;;;;;;;5.55;3.28;;;14.10;56.10;;;;;;5058074;28;20032;-58
2022/04/15 09:54:22;;;;;;;6.93;4.05;;;14.00;55.80;;;;;;5049450;28;20037;-58
2022/04/15 09:56:49;;;;;;;5.95;3.50;;;14.00;55.90;;;;;;5046714;28;20643;-59
2022/04/15 09:59:16;;;;;;;6.53;3.78;;;14.00;55.60;;;;;;5052807;28;20044;-59
2022/04/15 10:01:46;;;;;;;5.05;3.65;;;14.00;55.70;;;;;;5054260;28;20115;-57
2022/04/15 10:04:13;;;;;;;6.15;3.58;;;14.10;55.70;;;;;;5054051;28;20036;-58
2022/04/15 10:06:40;;;;;;;5.53;3.38;;;14.00;55.70;;;;;;5052118;28;20021;-58
2022/04/15 10:09:10;;;;;;;4.07;2.80;;;14.00;55.80;;;;;;5055376;28;20404;-58
2022/04/15 10:11:47;;;;;;;5.70;3.20;;;14.00;56.00;;;;;;5054940;28;20032;-58
2022/04/15 10:14:15;;;;;;;3.83;3.05;;;14.00;55.70;;;;;;5058042;28;20032;-59
2022/04/15 10:16:42;;;;;;;4.10;2.97;;;14.00;55.80;;;;;;5056024;28;20424;-59
2022/04/15 10:19:10;;;;;;;4.65;3.30;;;14.00;55.80;;;;;;5058304;28;20128;-59
2022/04/15 10:21:40;;;;;;;4.80;3.22;;;13.90;56.20;;;;;;5057692;28;20028;-58
2022/04/15 10:24:09;;;;;;;5.15;2.95;;;13.90;56.70;;;;;;5055191;28;20025;-59
2022/04/15 10:26:40;;;;;;;3.35;3.05;;;13.90;56.50;;;;;;5056177;28;20036;-58
2022/04/15 10:29:06;;;;;;;3.95;3.40;;;13.90;56.60;;;;;;5055766;28;20046;-59
2022/04/15 10:31:42;;;;;;;4.35;3.47;;;13.90;57.00;;;;;;5060711;28;20029;-58
2022/04/15 10:34:13;;;;;;;4.18;3.40;;;13.90;57.00;;;;;;5057453;28;20051;-58
2022/04/15 10:36:44;;;;;;;5.57;3.70;;;13.90;57.10;;;;;;5053588;28;20028;-59
2022/04/15 10:39:11;;;;;;;4.20;3.38;;;13.90;57.10;;;;;;5060653;28;20082;-58
2022/04/15 10:41:42;;;;;;;4.85;3.17;;;13.80;56.80;;;;;;5055086;28;20473;-58
2022/04/15 10:44:23;;;;;;;;;;;13.80;56.70;;;;;;5061752;28;20033;-58
2022/04/15 10:46:49;;;;;;;3.22;2.80;;;13.80;56.80;;;;;;5058055;28;19916;-58
2022/04/15 10:49:26;;;;;;;5.25;3.00;;;13.80;56.60;;;;;;5057098;28;20017;-58
2022/04/15 10:52:03;;;;;;;2.70;2.50;;;13.80;56.00;;;;;;5061417;28;20032;-59
2022/04/15 10:54:35;;;;;;;3.50;2.88;;;13.80;55.60;;;;;;5056008;28;20054;-58
2022/04/15 10:57:14;;;;;;;2.85;2.30;;;13.80;54.80;;;;;;5053292;28;20029;-58
2022/04/15 11:02:48;;;;;;;3.28;2.70;;;13.80;54.30;;;;;;5062444;28;20050;-60
2022/04/15 11:05:34;;;;;;;6.53;3.45;;;13.70;54.00;;;;;;5057880;28;20025;-60
2022/04/15 11:08:06;;;;;;;3.58;2.53;;;13.70;53.90;;;;;;5055295;28;20095;-59
2022/04/15 11:10:45;;;;;;;2.70;2.40;;;13.70;53.60;;;;;;5054991;28;20025;-59
2022/04/15 11:13:36;;;;;;;2.67;2.40;;;13.60;53.30;;;;;;5055875;28;20124;-58
2022/04/15 11:16:11;;;;;;;3.17;2.70;;;13.60;53.10;;;;;;5056524;28;20080;-59
2022/04/15 11:18:51;;;;;;;3.15;2.80;;;13.60;53.80;;;;;;5052694;28;20560;-60
2022/04/15 11:21:24;;;;;;;4.05;2.40;;;13.60;53.70;;;;;;5054667;28;20159;-59
2022/04/15 11:23:57;;;;;;;3.25;2.45;;;13.60;54.00;;;;;;5049718;28;20095;-59
2022/04/15 11:26:25;;;;;;;2.97;2.72;;;13.50;54.00;;;;;;5056556;28;20048;-59
2022/04/15 11:28:52;;;;;;;3.63;2.70;;;13.50;54.10;;;;;;5055100;28;20127;-59
2022/04/15 11:31:24;;;;;;;2.80;2.50;;;13.50;54.30;;;;;;5054135;28;20024;-59
2022/04/15 11:33:50;;;;;;;4.57;3.13;;;13.60;54.10;;;;;;5052418;28;20500;-59
2022/04/15 11:36:18;;;;;;;4.00;3.00;;;13.60;54.20;;;;;;5047547;28;20463;-59
2022/04/15 11:38:45;;;;;;;4.18;3.03;;;13.60;54.60;;;;;;5046241;28;20040;-58
2022/04/15 11:41:21;;;;;;;2.78;2.50;;;13.60;54.60;;;;;;5056860;28;20078;-59
2022/04/15 11:43:59;;;;;;;6.68;3.30;;;13.60;54.90;;;;;;5049224;28;20111;-59
2022/04/15 11:46:26;;;;;;;4.75;3.20;;;13.60;55.00;;;;;;5050896;28;20118;-59
2022/04/15 11:48:54;;;;;;;3.42;2.70;;;13.60;54.90;;;;;;5051729;28;20025;-59
2022/04/15 11:51:23;;;;;;;3.58;2.85;;;13.60;54.70;;;;;;5054462;28;20056;-59
2022/04/15 11:53:49;;;;;;;3.10;2.72;;;13.60;55.00;;;;;;5052852;28;20029;-57
2022/04/15 11:56:16;;;;;;;3.47;2.42;;;13.60;55.30;;;;;;5052963;28;20040;-57
2022/04/15 11:58:43;;;;;;;2.30;2.20;;;13.60;55.30;;;;;;5052049;28;20116;-58
2022/04/15 12:01:09;;;;;;;2.60;2.40;;;13.60;54.80;;;;;;5052366;28;20523;-57
2022/04/15 12:03:41;;;;;;;3.25;2.28;;;13.60;54.60;;;;;;5053425;28;20024;-59
2022/04/15 12:06:09;;;;;;;2.65;2.20;;;13.60;54.40;;;;;;5055106;28;20033;-59
2022/04/15 12:08:35;;;;;;;2.67;2.35;;;13.60;54.30;;;;;;5057315;28;20025;-58
2022/04/15 12:11:02;;;;;;;3.00;2.50;;;13.70;54.30;;;;;;5052980;28;22275;-59
2022/04/15 12:13:28;;;;;;;3.05;2.60;;;13.70;54.10;;;;;;5058428;28;20032;-58
2022/04/15 12:15:54;;;;;;;3.83;2.70;;;13.70;54.50;;;;;;5056185;28;20044;-59
2022/04/15 12:18:19;;;;;;;2.60;2.17;;;13.70;54.00;;;;;;5055305;28;20053;-58
2022/04/15 12:20:45;;;;;;;2.65;2.10;;;13.70;53.60;;;;;;5056111;28;20025;-60
2022/04/15 12:23:16;;;;;;;1.75;1.58;;;13.70;53.40;;;;;;5053191;28;20040;-59
2022/04/15 12:31:33;;;;;;;2.58;2.00;;;13.70;53.40;;;;;;5056025;28;20117;-58
2022/04/15 12:34:00;;;;;;;1.77;1.67;;;13.70;53.00;;;;;;5058496;28;20167;-57
2022/04/15 12:36:46;;;;;;;2.65;1.85;;;13.70;53.00;;;;;;5059798;28;20104;-58
2022/04/15 12:39:16;;;;;;;2.17;1.67;;;13.70;52.70;;;;;;5054495;28;20056;-57
2022/04/15 12:41:48;;;;;;;1.90;1.70;;;13.70;52.70;;;;;;5060865;28;20037;-58
2022/04/15 12:44:19;;;;;;;1.30;1.27;;;13.70;52.50;;;;;;5060731;28;20492;-57
2022/04/15 12:46:46;;;;;;;1.83;1.70;;;13.70;52.50;;;;;;5060124;28;20101;-58
2022/04/15 12:49:35;;;;;;;1.45;1.35;;;13.70;52.60;;;;;;5065188;28;20028;-59
2022/04/15 12:52:16;;;;;;;1.48;1.38;;;13.80;51.70;;;;;;5063063;28;20033;-59
2022/04/15 12:54:56;;;;;;;1.50;1.45;;;13.80;51.40;;;;;;5061469;28;20040;-59
2022/04/15 12:57:31;;;;;;;1.33;1.17;;;13.80;51.90;;;;;;5060301;28;20059;-59